sensor_id;sensor_type;location;lat;lon;timestamp;P1;durP1;ratioP1;P2;durP2;ratioP2
21330;SDS011;10824;51.632;4.950;2023-04-25T00:01:21;4.22;;;1.63;;
21330;SDS011;10824;51.632;4.950;2023-04-25T00:03:48;3.58;;;1.70;;
21330;SDS011;10824;51.632;4.950;2023-04-25T00:06:17;3.28;;;1.45;;
21330;SDS011;10824;51.632;4.950;2023-04-25T00:08:44;3.55;;;1.65;;
21330;SDS011;10824;51.632;4.950;2023-04-25T00:11:11;4.38;;;2.38;;
21330;SDS011;10824;51.632;4.950;2023-04-25T00:13:39;6.72;;;1.90;;
21330;SDS011;10824;51.632;4.950;2023-04-25T00:16:08;2.67;;;1.55;;
21330;SDS011;10824;51.632;4.950;2023-04-25T00:18:35;6.45;;;1.70;;
21330;SDS011;10824;51.632;4.950;2023-04-25T00:21:02;8.60;;;3.03;;
21330;SDS011;10824;51.632;4.950;2023-04-25T00:23:32;9.27;;;2.47;;
21330;SDS011;10824;51.632;4.950;2023-04-25T00:26:01;6.95;;;1.30;;
21330;SDS011;10824;51.632;4.950;2023-04-25T00:28:29;4.70;;;1.75;;
21330;SDS011;10824;51.632;4.950;2023-04-25T00:30:56;3.67;;;1.40;;
21330;SDS011;10824;51.632;4.950;2023-04-25T00:33:23;5.80;;;1.80;;
21330;SDS011;10824;51.632;4.950;2023-04-25T00:35:50;5.60;;;1.58;;
21330;SDS011;10824;51.632;4.950;2023-04-25T00:38:17;7.50;;;2.90;;
21330;SDS011;10824;51.632;4.950;2023-04-25T00:40:44;8.95;;;1.98;;
21330;SDS011;10824;51.632;4.950;2023-04-25T00:43:11;4.55;;;1.77;;
21330;SDS011;10824;51.632;4.950;2023-04-25T00:45:39;5.53;;;1.58;;
21330;SDS011;10824;51.632;4.950;2023-04-25T00:48:06;6.70;;;1.98;;
21330;SDS011;10824;51.632;4.950;2023-04-25T00:50:33;6.22;;;1.88;;
21330;SDS011;10824;51.632;4.950;2023-04-25T00:53:01;2.40;;;1.42;;
21330;SDS011;10824;51.632;4.950;2023-04-25T00:55:29;13.73;;;2.70;;
21330;SDS011;10824;51.632;4.950;2023-04-25T00:57:57;4.85;;;1.98;;
21330;SDS011;10824;51.632;4.950;2023-04-25T01:00:25;7.72;;;2.00;;
21330;SDS011;10824;51.632;4.950;2023-04-25T01:02:52;6.43;;;2.00;;
21330;SDS011;10824;51.632;4.950;2023-04-25T01:05:19;6.90;;;2.58;;
21330;SDS011;10824;51.632;4.950;2023-04-25T01:07:47;5.50;;;1.85;;
21330;SDS011;10824;51.632;4.950;2023-04-25T01:10:14;6.47;;;2.35;;
21330;SDS011;10824;51.632;4.950;2023-04-25T01:12:41;15.95;;;2.30;;
21330;SDS011;10824;51.632;4.950;2023-04-25T01:15:08;3.97;;;2.25;;
21330;SDS011;10824;51.632;4.950;2023-04-25T01:17:36;10.32;;;2.83;;
21330;SDS011;10824;51.632;4.950;2023-04-25T01:20:04;7.78;;;2.45;;
21330;SDS011;10824;51.632;4.950;2023-04-25T01:22:32;6.95;;;2.05;;
21330;SDS011;10824;51.632;4.950;2023-04-25T01:24:59;8.65;;;2.22;;
21330;SDS011;10824;51.632;4.950;2023-04-25T01:27:29;6.75;;;2.13;;
21330;SDS011;10824;51.632;4.950;2023-04-25T01:29:57;6.70;;;2.13;;
21330;SDS011;10824;51.632;4.950;2023-04-25T01:32:24;10.70;;;2.25;;
21330;SDS011;10824;51.632;4.950;2023-04-25T01:34:54;8.90;;;2.15;;
21330;SDS011;10824;51.632;4.950;2023-04-25T01:37:21;9.20;;;2.33;;
21330;SDS011;10824;51.632;4.950;2023-04-25T01:39:49;6.22;;;2.30;;
21330;SDS011;10824;51.632;4.950;2023-04-25T01:42:16;10.35;;;2.50;;
21330;SDS011;10824;51.632;4.950;2023-04-25T01:44:43;5.10;;;1.92;;
21330;SDS011;10824;51.632;4.950;2023-04-25T01:47:10;4.90;;;2.38;;
21330;SDS011;10824;51.632;4.950;2023-04-25T01:49:38;9.35;;;2.05;;
21330;SDS011;10824;51.632;4.950;2023-04-25T01:52:05;7.10;;;1.75;;
21330;SDS011;10824;51.632;4.950;2023-04-25T01:54:32;9.38;;;2.35;;
21330;SDS011;10824;51.632;4.950;2023-04-25T01:56:59;7.30;;;1.77;;
21330;SDS011;10824;51.632;4.950;2023-04-25T01:59:27;11.88;;;1.92;;
21330;SDS011;10824;51.632;4.950;2023-04-25T02:02:07;8.85;;;2.58;;
21330;SDS011;10824;51.632;4.950;2023-04-25T02:04:35;5.45;;;2.10;;
21330;SDS011;10824;51.632;4.950;2023-04-25T02:07:03;6.20;;;2.20;;
21330;SDS011;10824;51.632;4.950;2023-04-25T02:09:45;8.27;;;2.90;;
21330;SDS011;10824;51.632;4.950;2023-04-25T02:12:12;9.88;;;2.63;;
21330;SDS011;10824;51.632;4.950;2023-04-25T02:15:10;8.80;;;4.35;;
21330;SDS011;10824;51.632;4.950;2023-04-25T02:17:43;6.03;;;2.00;;
21330;SDS011;10824;51.632;4.950;2023-04-25T02:20:11;11.35;;;3.20;;
21330;SDS011;10824;51.632;4.950;2023-04-25T02:22:39;6.53;;;3.00;;
21330;SDS011;10824;51.632;4.950;2023-04-25T02:25:07;11.88;;;2.92;;
21330;SDS011;10824;51.632;4.950;2023-04-25T02:27:35;4.28;;;2.10;;
21330;SDS011;10824;51.632;4.950;2023-04-25T02:30:02;5.75;;;3.00;;
21330;SDS011;10824;51.632;4.950;2023-04-25T02:32:32;7.57;;;2.20;;
21330;SDS011;10824;51.632;4.950;2023-04-25T02:35:01;7.60;;;2.17;;
21330;SDS011;10824;51.632;4.950;2023-04-25T02:37:35;4.85;;;2.47;;
21330;SDS011;10824;51.632;4.950;2023-04-25T02:42:31;9.52;;;1.80;;
21330;SDS011;10824;51.632;4.950;2023-04-25T02:44:59;8.23;;;3.35;;
21330;SDS011;10824;51.632;4.950;2023-04-25T02:47:26;8.23;;;2.60;;
21330;SDS011;10824;51.632;4.950;2023-04-25T02:49:54;5.90;;;1.83;;
21330;SDS011;10824;51.632;4.950;2023-04-25T02:52:22;9.35;;;2.53;;
21330;SDS011;10824;51.632;4.950;2023-04-25T02:54:58;9.75;;;2.88;;
21330;SDS011;10824;51.632;4.950;2023-04-25T02:57:26;5.15;;;1.70;;
21330;SDS011;10824;51.632;4.950;2023-04-25T02:59:53;7.70;;;2.25;;
21330;SDS011;10824;51.632;4.950;2023-04-25T03:02:20;5.10;;;1.88;;
21330;SDS011;10824;51.632;4.950;2023-04-25T03:04:49;7.82;;;1.77;;
21330;SDS011;10824;51.632;4.950;2023-04-25T03:07:16;6.13;;;2.20;;
21330;SDS011;10824;51.632;4.950;2023-04-25T03:09:43;6.15;;;2.13;;
21330;SDS011;10824;51.632;4.950;2023-04-25T03:12:11;10.73;;;2.45;;
21330;SDS011;10824;51.632;4.950;2023-04-25T03:14:38;5.88;;;2.05;;
21330;SDS011;10824;51.632;4.950;2023-04-25T03:17:05;8.18;;;3.45;;
21330;SDS011;10824;51.632;4.950;2023-04-25T03:19:34;5.43;;;2.38;;
21330;SDS011;10824;51.632;4.950;2023-04-25T03:22:01;15.80;;;4.68;;
21330;SDS011;10824;51.632;4.950;2023-04-25T03:24:28;8.63;;;3.05;;
21330;SDS011;10824;51.632;4.950;2023-04-25T03:26:55;6.95;;;2.15;;
21330;SDS011;10824;51.632;4.950;2023-04-25T03:29:22;3.67;;;1.98;;
21330;SDS011;10824;51.632;4.950;2023-04-25T03:31:54;4.90;;;2.00;;
21330;SDS011;10824;51.632;4.950;2023-04-25T03:34:21;8.38;;;2.90;;
21330;SDS011;10824;51.632;4.950;2023-04-25T03:36:48;6.38;;;1.83;;
21330;SDS011;10824;51.632;4.950;2023-04-25T03:39:16;6.57;;;2.13;;
21330;SDS011;10824;51.632;4.950;2023-04-25T03:41:47;7.22;;;1.98;;
21330;SDS011;10824;51.632;4.950;2023-04-25T03:44:16;4.50;;;2.10;;
21330;SDS011;10824;51.632;4.950;2023-04-25T03:46:43;7.55;;;2.30;;
21330;SDS011;10824;51.632;4.950;2023-04-25T03:49:11;6.57;;;2.08;;
21330;SDS011;10824;51.632;4.950;2023-04-25T03:51:53;13.32;;;2.60;;
21330;SDS011;10824;51.632;4.950;2023-04-25T03:54:21;5.38;;;2.00;;
21330;SDS011;10824;51.632;4.950;2023-04-25T03:56:55;3.13;;;2.05;;
21330;SDS011;10824;51.632;4.950;2023-04-25T03:59:26;6.28;;;2.00;;
21330;SDS011;10824;51.632;4.950;2023-04-25T04:01:53;8.85;;;2.35;;
21330;SDS011;10824;51.632;4.950;2023-04-25T04:04:21;3.78;;;1.60;;
21330;SDS011;10824;51.632;4.950;2023-04-25T04:06:49;6.07;;;2.30;;
21330;SDS011;10824;51.632;4.950;2023-04-25T04:09:23;5.50;;;2.40;;
21330;SDS011;10824;51.632;4.950;2023-04-25T04:11:50;9.88;;;3.47;;
21330;SDS011;10824;51.632;4.950;2023-04-25T04:14:17;5.07;;;2.30;;
21330;SDS011;10824;51.632;4.950;2023-04-25T04:16:46;5.78;;;1.98;;
21330;SDS011;10824;51.632;4.950;2023-04-25T04:19:13;5.63;;;2.45;;
21330;SDS011;10824;51.632;4.950;2023-04-25T04:21:45;5.55;;;1.80;;
21330;SDS011;10824;51.632;4.950;2023-04-25T04:24:13;8.55;;;2.92;;
21330;SDS011;10824;51.632;4.950;2023-04-25T04:26:49;8.77;;;1.73;;
21330;SDS011;10824;51.632;4.950;2023-04-25T04:29:37;5.20;;;2.47;;
21330;SDS011;10824;51.632;4.950;2023-04-25T04:32:14;11.18;;;1.80;;
21330;SDS011;10824;51.632;4.950;2023-04-25T04:34:41;3.83;;;2.28;;
21330;SDS011;10824;51.632;4.950;2023-04-25T04:37:11;3.38;;;1.75;;
21330;SDS011;10824;51.632;4.950;2023-04-25T04:39:40;7.50;;;1.42;;
21330;SDS011;10824;51.632;4.950;2023-04-25T04:42:26;3.83;;;1.88;;
21330;SDS011;10824;51.632;4.950;2023-04-25T04:45:03;4.40;;;2.00;;
21330;SDS011;10824;51.632;4.950;2023-04-25T04:47:56;1.92;;;0.93;;
21330;SDS011;10824;51.632;4.950;2023-04-25T04:50:37;5.10;;;1.10;;
21330;SDS011;10824;51.632;4.950;2023-04-25T04:53:25;1.50;;;1.00;;
21330;SDS011;10824;51.632;4.950;2023-04-25T04:56:07;3.05;;;1.00;;
21330;SDS011;10824;51.632;4.950;2023-04-25T04:58:52;2.80;;;0.70;;
21330;SDS011;10824;51.632;4.950;2023-04-25T05:01:42;1.58;;;0.90;;
21330;SDS011;10824;51.632;4.950;2023-04-25T05:04:39;4.93;;;0.98;;
21330;SDS011;10824;51.632;4.950;2023-04-25T05:07:27;4.43;;;0.82;;
21330;SDS011;10824;51.632;4.950;2023-04-25T05:10:18;4.13;;;2.92;;
21330;SDS011;10824;51.632;4.950;2023-04-25T05:13:04;6.40;;;0.80;;
21330;SDS011;10824;51.632;4.950;2023-04-25T05:15:50;10.70;;;1.92;;
21330;SDS011;10824;51.632;4.950;2023-04-25T05:18:40;3.55;;;1.90;;
21330;SDS011;10824;51.632;4.950;2023-04-25T05:21:25;4.50;;;1.23;;
21330;SDS011;10824;51.632;4.950;2023-04-25T05:24:14;3.17;;;1.27;;
21330;SDS011;10824;51.632;4.950;2023-04-25T05:26:59;4.20;;;1.40;;
21330;SDS011;10824;51.632;4.950;2023-04-25T05:29:46;3.65;;;1.77;;
21330;SDS011;10824;51.632;4.950;2023-04-25T05:32:24;5.43;;;1.73;;
21330;SDS011;10824;51.632;4.950;2023-04-25T05:34:52;2.83;;;1.35;;
21330;SDS011;10824;51.632;4.950;2023-04-25T05:37:25;9.93;;;1.50;;
21330;SDS011;10824;51.632;4.950;2023-04-25T05:40:03;3.83;;;1.23;;
21330;SDS011;10824;51.632;4.950;2023-04-25T05:42:51;4.00;;;1.48;;
21330;SDS011;10824;51.632;4.950;2023-04-25T05:45:28;3.33;;;1.55;;
21330;SDS011;10824;51.632;4.950;2023-04-25T05:48:27;4.82;;;1.38;;
21330;SDS011;10824;51.632;4.950;2023-04-25T05:50:59;3.38;;;1.42;;
21330;SDS011;10824;51.632;4.950;2023-04-25T05:53:47;5.45;;;1.25;;
21330;SDS011;10824;51.632;4.950;2023-04-25T05:56:14;3.28;;;1.25;;
21330;SDS011;10824;51.632;4.950;2023-04-25T05:58:42;4.22;;;1.20;;
21330;SDS011;10824;51.632;4.950;2023-04-25T06:01:11;5.63;;;3.00;;
21330;SDS011;10824;51.632;4.950;2023-04-25T06:03:38;3.05;;;1.52;;
21330;SDS011;10824;51.632;4.950;2023-04-25T06:06:09;3.55;;;2.17;;
21330;SDS011;10824;51.632;4.950;2023-04-25T06:08:37;5.50;;;2.20;;
21330;SDS011;10824;51.632;4.950;2023-04-25T06:11:04;3.45;;;1.23;;
21330;SDS011;10824;51.632;4.950;2023-04-25T06:13:32;2.42;;;1.65;;
21330;SDS011;10824;51.632;4.950;2023-04-25T06:15:59;7.93;;;1.50;;
21330;SDS011;10824;51.632;4.950;2023-04-25T06:18:27;4.10;;;1.40;;
21330;SDS011;10824;51.632;4.950;2023-04-25T06:20:54;2.40;;;1.02;;
21330;SDS011;10824;51.632;4.950;2023-04-25T06:23:22;3.45;;;1.20;;
21330;SDS011;10824;51.632;4.950;2023-04-25T06:25:59;4.05;;;1.00;;
21330;SDS011;10824;51.632;4.950;2023-04-25T06:28:30;5.82;;;1.50;;
21330;SDS011;10824;51.632;4.950;2023-04-25T06:30:58;2.58;;;1.00;;
21330;SDS011;10824;51.632;4.950;2023-04-25T06:33:26;3.80;;;1.08;;
21330;SDS011;10824;51.632;4.950;2023-04-25T06:35:54;2.85;;;1.10;;
21330;SDS011;10824;51.632;4.950;2023-04-25T06:38:25;4.88;;;1.75;;
21330;SDS011;10824;51.632;4.950;2023-04-25T06:40:55;4.93;;;2.13;;
21330;SDS011;10824;51.632;4.950;2023-04-25T06:43:22;4.75;;;1.05;;
21330;SDS011;10824;51.632;4.950;2023-04-25T06:45:49;5.43;;;1.40;;
21330;SDS011;10824;51.632;4.950;2023-04-25T06:48:18;1.88;;;1.05;;
21330;SDS011;10824;51.632;4.950;2023-04-25T06:50:45;5.22;;;1.20;;
21330;SDS011;10824;51.632;4.950;2023-04-25T06:53:13;3.60;;;1.23;;
21330;SDS011;10824;51.632;4.950;2023-04-25T06:55:43;12.05;;;1.63;;
21330;SDS011;10824;51.632;4.950;2023-04-25T06:58:21;4.00;;;1.45;;
21330;SDS011;10824;51.632;4.950;2023-04-25T07:00:55;5.43;;;1.08;;
21330;SDS011;10824;51.632;4.950;2023-04-25T07:03:25;2.53;;;1.38;;
21330;SDS011;10824;51.632;4.950;2023-04-25T07:05:57;1.70;;;1.00;;
21330;SDS011;10824;51.632;4.950;2023-04-25T07:08:24;4.75;;;1.13;;
21330;SDS011;10824;51.632;4.950;2023-04-25T07:10:51;12.10;;;1.00;;
21330;SDS011;10824;51.632;4.950;2023-04-25T07:13:18;2.80;;;1.05;;
21330;SDS011;10824;51.632;4.950;2023-04-25T07:15:47;6.63;;;1.17;;
21330;SDS011;10824;51.632;4.950;2023-04-25T07:18:16;2.03;;;0.85;;
21330;SDS011;10824;51.632;4.950;2023-04-25T07:20:43;4.68;;;1.00;;
21330;SDS011;10824;51.632;4.950;2023-04-25T07:23:11;2.85;;;0.80;;
21330;SDS011;10824;51.632;4.950;2023-04-25T07:25:38;1.52;;;0.98;;
21330;SDS011;10824;51.632;4.950;2023-04-25T07:28:08;1.73;;;0.70;;
21330;SDS011;10824;51.632;4.950;2023-04-25T07:30:35;2.30;;;0.95;;
21330;SDS011;10824;51.632;4.950;2023-04-25T07:33:03;0.73;;;0.55;;
21330;SDS011;10824;51.632;4.950;2023-04-25T07:35:30;1.60;;;0.82;;
21330;SDS011;10824;51.632;4.950;2023-04-25T07:37:58;2.70;;;0.60;;
21330;SDS011;10824;51.632;4.950;2023-04-25T07:40:25;8.40;;;1.02;;
21330;SDS011;10824;51.632;4.950;2023-04-25T07:42:59;1.45;;;0.80;;
21330;SDS011;10824;51.632;4.950;2023-04-25T07:45:33;0.73;;;0.73;;
21330;SDS011;10824;51.632;4.950;2023-04-25T07:48:01;1.42;;;0.90;;
21330;SDS011;10824;51.632;4.950;2023-04-25T07:50:34;1.33;;;0.90;;
21330;SDS011;10824;51.632;4.950;2023-04-25T07:53:01;1.05;;;0.80;;
21330;SDS011;10824;51.632;4.950;2023-04-25T07:55:35;1.77;;;0.70;;
21330;SDS011;10824;51.632;4.950;2023-04-25T07:58:15;1.15;;;0.73;;
21330;SDS011;10824;51.632;4.950;2023-04-25T08:00:51;1.67;;;0.70;;
21330;SDS011;10824;51.632;4.950;2023-04-25T08:03:40;6.75;;;1.48;;
21330;SDS011;10824;51.632;4.950;2023-04-25T08:06:17;2.13;;;0.73;;
21330;SDS011;10824;51.632;4.950;2023-04-25T08:09:01;1.33;;;0.63;;
21330;SDS011;10824;51.632;4.950;2023-04-25T08:11:36;1.27;;;0.70;;
21330;SDS011;10824;51.632;4.950;2023-04-25T08:14:04;0.88;;;0.70;;
21330;SDS011;10824;51.632;4.950;2023-04-25T08:16:32;2.97;;;0.75;;
21330;SDS011;10824;51.632;4.950;2023-04-25T08:19:00;4.57;;;0.95;;
21330;SDS011;10824;51.632;4.950;2023-04-25T08:21:29;1.30;;;0.85;;
21330;SDS011;10824;51.632;4.950;2023-04-25T08:24:00;4.82;;;0.70;;
21330;SDS011;10824;51.632;4.950;2023-04-25T08:26:33;2.55;;;0.95;;
21330;SDS011;10824;51.632;4.950;2023-04-25T08:29:01;4.13;;;0.82;;
21330;SDS011;10824;51.632;4.950;2023-04-25T08:31:28;1.92;;;0.90;;
21330;SDS011;10824;51.632;4.950;2023-04-25T08:33:59;1.55;;;0.80;;
21330;SDS011;10824;51.632;4.950;2023-04-25T08:36:37;2.20;;;0.90;;
21330;SDS011;10824;51.632;4.950;2023-04-25T08:39:18;5.88;;;0.82;;
21330;SDS011;10824;51.632;4.950;2023-04-25T08:42:10;2.67;;;1.00;;
21330;SDS011;10824;51.632;4.950;2023-04-25T08:44:39;3.20;;;1.05;;
21330;SDS011;10824;51.632;4.950;2023-04-25T08:47:06;5.15;;;0.93;;
21330;SDS011;10824;51.632;4.950;2023-04-25T08:49:43;5.97;;;1.20;;
21330;SDS011;10824;51.632;4.950;2023-04-25T08:52:14;2.92;;;0.90;;
21330;SDS011;10824;51.632;4.950;2023-04-25T08:54:46;2.28;;;1.23;;
21330;SDS011;10824;51.632;4.950;2023-04-25T08:57:16;2.05;;;0.93;;
21330;SDS011;10824;51.632;4.950;2023-04-25T08:59:46;3.55;;;1.08;;
21330;SDS011;10824;51.632;4.950;2023-04-25T09:02:14;4.53;;;1.13;;
21330;SDS011;10824;51.632;4.950;2023-04-25T09:04:47;1.58;;;0.88;;
21330;SDS011;10824;51.632;4.950;2023-04-25T09:07:16;2.35;;;0.70;;
21330;SDS011;10824;51.632;4.950;2023-04-25T09:09:47;4.18;;;0.82;;
21330;SDS011;10824;51.632;4.950;2023-04-25T09:12:19;3.47;;;0.93;;
21330;SDS011;10824;51.632;4.950;2023-04-25T09:15:03;2.38;;;0.77;;
21330;SDS011;10824;51.632;4.950;2023-04-25T09:17:54;2.22;;;0.82;;
21330;SDS011;10824;51.632;4.950;2023-04-25T09:20:25;0.70;;;0.52;;
21330;SDS011;10824;51.632;4.950;2023-04-25T09:23:01;1.88;;;0.88;;
21330;SDS011;10824;51.632;4.950;2023-04-25T09:25:37;3.85;;;0.80;;
21330;SDS011;10824;51.632;4.950;2023-04-25T09:28:10;1.38;;;1.13;;
21330;SDS011;10824;51.632;4.950;2023-04-25T09:30:38;5.50;;;0.90;;
21330;SDS011;10824;51.632;4.950;2023-04-25T09:33:19;1.95;;;0.68;;
21330;SDS011;10824;51.632;4.950;2023-04-25T09:35:49;2.65;;;0.77;;
21330;SDS011;10824;51.632;4.950;2023-04-25T09:38:31;1.52;;;0.80;;
21330;SDS011;10824;51.632;4.950;2023-04-25T09:41:12;3.42;;;0.75;;
21330;SDS011;10824;51.632;4.950;2023-04-25T09:43:45;3.58;;;0.95;;
21330;SDS011;10824;51.632;4.950;2023-04-25T09:46:15;1.15;;;0.70;;
21330;SDS011;10824;51.632;4.950;2023-04-25T09:48:52;2.05;;;0.80;;
21330;SDS011;10824;51.632;4.950;2023-04-25T09:51:34;0.88;;;0.88;;
21330;SDS011;10824;51.632;4.950;2023-04-25T09:54:04;0.55;;;0.47;;
21330;SDS011;10824;51.632;4.950;2023-04-25T09:56:40;1.63;;;0.68;;
21330;SDS011;10824;51.632;4.950;2023-04-25T09:59:09;2.28;;;0.75;;
21330;SDS011;10824;51.632;4.950;2023-04-25T10:01:39;1.42;;;0.47;;
21330;SDS011;10824;51.632;4.950;2023-04-25T10:04:13;0.88;;;0.52;;
21330;SDS011;10824;51.632;4.950;2023-04-25T10:07:03;1.70;;;0.50;;
21330;SDS011;10824;51.632;4.950;2023-04-25T10:09:32;1.52;;;0.80;;
21330;SDS011;10824;51.632;4.950;2023-04-25T10:12:01;6.35;;;1.17;;
21330;SDS011;10824;51.632;4.950;2023-04-25T10:14:30;3.08;;;0.60;;
21330;SDS011;10824;51.632;4.950;2023-04-25T10:16:58;1.17;;;0.57;;
21330;SDS011;10824;51.632;4.950;2023-04-25T10:19:27;2.28;;;0.80;;
21330;SDS011;10824;51.632;4.950;2023-04-25T10:22:03;4.03;;;0.65;;
21330;SDS011;10824;51.632;4.950;2023-04-25T10:24:31;4.95;;;0.70;;
21330;SDS011;10824;51.632;4.950;2023-04-25T10:26:58;2.15;;;0.70;;
21330;SDS011;10824;51.632;4.950;2023-04-25T10:29:27;1.98;;;0.60;;
21330;SDS011;10824;51.632;4.950;2023-04-25T10:31:54;2.60;;;0.88;;
21330;SDS011;10824;51.632;4.950;2023-04-25T10:34:25;4.35;;;0.70;;
21330;SDS011;10824;51.632;4.950;2023-04-25T10:37:10;6.35;;;0.95;;
21330;SDS011;10824;51.632;4.950;2023-04-25T10:39:41;1.33;;;0.75;;
21330;SDS011;10824;51.632;4.950;2023-04-25T10:42:09;3.42;;;0.70;;
21330;SDS011;10824;51.632;4.950;2023-04-25T10:44:36;1.02;;;0.50;;
21330;SDS011;10824;51.632;4.950;2023-04-25T10:47:07;2.33;;;1.02;;
21330;SDS011;10824;51.632;4.950;2023-04-25T10:49:37;1.55;;;0.63;;
21330;SDS011;10824;51.632;4.950;2023-04-25T10:52:29;0.68;;;0.60;;
21330;SDS011;10824;51.632;4.950;2023-04-25T10:54:56;2.05;;;1.05;;
21330;SDS011;10824;51.632;4.950;2023-04-25T10:57:25;3.97;;;0.80;;
21330;SDS011;10824;51.632;4.950;2023-04-25T11:02:51;2.55;;;0.73;;
21330;SDS011;10824;51.632;4.950;2023-04-25T11:05:42;4.75;;;0.70;;
21330;SDS011;10824;51.632;4.950;2023-04-25T11:11:00;2.15;;;1.38;;
21330;SDS011;10824;51.632;4.950;2023-04-25T11:13:29;2.78;;;0.57;;
21330;SDS011;10824;51.632;4.950;2023-04-25T11:15:56;1.55;;;0.60;;
21330;SDS011;10824;51.632;4.950;2023-04-25T11:18:40;2.08;;;0.60;;
21330;SDS011;10824;51.632;4.950;2023-04-25T11:21:08;2.25;;;0.90;;
21330;SDS011;10824;51.632;4.950;2023-04-25T11:23:39;1.38;;;0.68;;
21330;SDS011;10824;51.632;4.950;2023-04-25T11:26:07;1.77;;;0.70;;
21330;SDS011;10824;51.632;4.950;2023-04-25T11:28:34;3.47;;;0.68;;
21330;SDS011;10824;51.632;4.950;2023-04-25T11:31:02;2.15;;;1.13;;
21330;SDS011;10824;51.632;4.950;2023-04-25T11:33:30;3.53;;;0.70;;
21330;SDS011;10824;51.632;4.950;2023-04-25T11:35:57;2.13;;;0.60;;
21330;SDS011;10824;51.632;4.950;2023-04-25T11:38:25;1.20;;;0.70;;
21330;SDS011;10824;51.632;4.950;2023-04-25T11:40:54;5.18;;;0.60;;
21330;SDS011;10824;51.632;4.950;2023-04-25T11:43:22;1.90;;;0.80;;
21330;SDS011;10824;51.632;4.950;2023-04-25T11:45:49;3.20;;;0.65;;
21330;SDS011;10824;51.632;4.950;2023-04-25T11:48:18;1.38;;;0.50;;
21330;SDS011;10824;51.632;4.950;2023-04-25T11:50:53;1.33;;;0.90;;
21330;SDS011;10824;51.632;4.950;2023-04-25T11:53:21;2.55;;;0.63;;
21330;SDS011;10824;51.632;4.950;2023-04-25T11:55:50;1.30;;;0.50;;
21330;SDS011;10824;51.632;4.950;2023-04-25T11:58:17;4.25;;;0.90;;
21330;SDS011;10824;51.632;4.950;2023-04-25T12:00:46;5.85;;;1.65;;
21330;SDS011;10824;51.632;4.950;2023-04-25T12:03:17;2.40;;;0.75;;
21330;SDS011;10824;51.632;4.950;2023-04-25T12:05:45;2.47;;;1.00;;
21330;SDS011;10824;51.632;4.950;2023-04-25T12:08:15;0.52;;;0.40;;
21330;SDS011;10824;51.632;4.950;2023-04-25T12:10:43;2.05;;;0.60;;
21330;SDS011;10824;51.632;4.950;2023-04-25T12:13:45;2.35;;;0.70;;
21330;SDS011;10824;51.632;4.950;2023-04-25T12:16:05;3.40;;;0.90;;
21330;SDS011;10824;51.632;4.950;2023-04-25T12:18:33;0.50;;;0.50;;
21330;SDS011;10824;51.632;4.950;2023-04-25T12:21:02;3.35;;;0.63;;
21330;SDS011;10824;51.632;4.950;2023-04-25T12:23:31;1.83;;;0.70;;
21330;SDS011;10824;51.632;4.950;2023-04-25T12:25:58;1.52;;;0.55;;
21330;SDS011;10824;51.632;4.950;2023-04-25T12:28:26;0.80;;;0.60;;
21330;SDS011;10824;51.632;4.950;2023-04-25T12:31:02;8.52;;;0.77;;
21330;SDS011;10824;51.632;4.950;2023-04-25T12:33:31;6.00;;;0.90;;
21330;SDS011;10824;51.632;4.950;2023-04-25T12:36:03;1.50;;;0.57;;
21330;SDS011;10824;51.632;4.950;2023-04-25T12:38:39;0.88;;;0.40;;
21330;SDS011;10824;51.632;4.950;2023-04-25T12:41:07;0.93;;;0.90;;
21330;SDS011;10824;51.632;4.950;2023-04-25T12:43:35;5.68;;;0.93;;
21330;SDS011;10824;51.632;4.950;2023-04-25T12:46:02;2.90;;;0.60;;
21330;SDS011;10824;51.632;4.950;2023-04-25T12:48:29;2.00;;;0.60;;
21330;SDS011;10824;51.632;4.950;2023-04-25T12:50:57;0.98;;;0.40;;
21330;SDS011;10824;51.632;4.950;2023-04-25T12:53:25;1.13;;;0.70;;
21330;SDS011;10824;51.632;4.950;2023-04-25T12:55:52;1.38;;;0.50;;
21330;SDS011;10824;51.632;4.950;2023-04-25T12:58:20;0.82;;;0.57;;
21330;SDS011;10824;51.632;4.950;2023-04-25T13:00:47;1.58;;;0.95;;
21330;SDS011;10824;51.632;4.950;2023-04-25T13:03:15;1.58;;;0.75;;
21330;SDS011;10824;51.632;4.950;2023-04-25T13:05:43;1.80;;;0.77;;
21330;SDS011;10824;51.632;4.950;2023-04-25T13:08:10;0.95;;;0.73;;
21330;SDS011;10824;51.632;4.950;2023-04-25T13:10:37;1.90;;;0.80;;
21330;SDS011;10824;51.632;4.950;2023-04-25T13:13:05;1.63;;;0.75;;
21330;SDS011;10824;51.632;4.950;2023-04-25T13:15:33;3.15;;;0.70;;
21330;SDS011;10824;51.632;4.950;2023-04-25T13:18:00;2.45;;;0.90;;
21330;SDS011;10824;51.632;4.950;2023-04-25T13:20:27;2.83;;;0.77;;
21330;SDS011;10824;51.632;4.950;2023-04-25T13:22:54;0.85;;;0.50;;
21330;SDS011;10824;51.632;4.950;2023-04-25T13:25:26;1.73;;;0.75;;
21330;SDS011;10824;51.632;4.950;2023-04-25T13:27:53;2.17;;;0.70;;
21330;SDS011;10824;51.632;4.950;2023-04-25T13:30:21;1.40;;;0.50;;
21330;SDS011;10824;51.632;4.950;2023-04-25T13:32:48;3.60;;;0.60;;
21330;SDS011;10824;51.632;4.950;2023-04-25T13:35:16;4.25;;;0.57;;
21330;SDS011;10824;51.632;4.950;2023-04-25T13:37:43;0.65;;;0.50;;
21330;SDS011;10824;51.632;4.950;2023-04-25T13:40:11;1.88;;;0.85;;
21330;SDS011;10824;51.632;4.950;2023-04-25T13:42:38;2.65;;;0.80;;
21330;SDS011;10824;51.632;4.950;2023-04-25T13:45:06;2.35;;;0.95;;
21330;SDS011;10824;51.632;4.950;2023-04-25T13:47:34;5.18;;;0.70;;
21330;SDS011;10824;51.632;4.950;2023-04-25T13:50:02;2.05;;;0.70;;
21330;SDS011;10824;51.632;4.950;2023-04-25T13:52:30;1.25;;;0.50;;
21330;SDS011;10824;51.632;4.950;2023-04-25T13:54:57;1.33;;;0.90;;
21330;SDS011;10824;51.632;4.950;2023-04-25T13:57:27;0.98;;;0.60;;
21330;SDS011;10824;51.632;4.950;2023-04-25T13:59:54;1.08;;;0.60;;
21330;SDS011;10824;51.632;4.950;2023-04-25T14:02:21;1.30;;;0.70;;
21330;SDS011;10824;51.632;4.950;2023-04-25T14:04:48;2.97;;;0.80;;
21330;SDS011;10824;51.632;4.950;2023-04-25T14:07:16;0.93;;;0.50;;
21330;SDS011;10824;51.632;4.950;2023-04-25T14:09:43;2.05;;;0.52;;
21330;SDS011;10824;51.632;4.950;2023-04-25T14:12:10;5.32;;;0.68;;
21330;SDS011;10824;51.632;4.950;2023-04-25T14:14:37;1.30;;;0.40;;
21330;SDS011;10824;51.632;4.950;2023-04-25T14:17:05;1.30;;;0.60;;
21330;SDS011;10824;51.632;4.950;2023-04-25T14:19:33;2.10;;;0.45;;
21330;SDS011;10824;51.632;4.950;2023-04-25T14:22:00;1.45;;;0.50;;
21330;SDS011;10824;51.632;4.950;2023-04-25T14:24:28;1.42;;;0.80;;
21330;SDS011;10824;51.632;4.950;2023-04-25T14:26:55;3.28;;;0.90;;
21330;SDS011;10824;51.632;4.950;2023-04-25T14:29:23;6.65;;;0.63;;
21330;SDS011;10824;51.632;4.950;2023-04-25T14:31:50;7.50;;;0.93;;
21330;SDS011;10824;51.632;4.950;2023-04-25T14:34:17;9.00;;;0.88;;
21330;SDS011;10824;51.632;4.950;2023-04-25T14:36:44;4.57;;;0.77;;
21330;SDS011;10824;51.632;4.950;2023-04-25T14:39:12;4.20;;;0.70;;
21330;SDS011;10824;51.632;4.950;2023-04-25T14:41:40;2.67;;;0.85;;
21330;SDS011;10824;51.632;4.950;2023-04-25T14:44:07;5.40;;;0.88;;
21330;SDS011;10824;51.632;4.950;2023-04-25T14:46:34;1.75;;;0.50;;
21330;SDS011;10824;51.632;4.950;2023-04-25T14:49:02;2.78;;;0.90;;
21330;SDS011;10824;51.632;4.950;2023-04-25T14:51:30;1.05;;;0.70;;
21330;SDS011;10824;51.632;4.950;2023-04-25T14:53:57;2.20;;;0.60;;
21330;SDS011;10824;51.632;4.950;2023-04-25T14:56:24;4.20;;;0.90;;
21330;SDS011;10824;51.632;4.950;2023-04-25T14:58:51;3.90;;;0.90;;
21330;SDS011;10824;51.632;4.950;2023-04-25T15:01:19;3.10;;;0.98;;
21330;SDS011;10824;51.632;4.950;2023-04-25T15:03:47;3.55;;;0.70;;
21330;SDS011;10824;51.632;4.950;2023-04-25T15:06:15;1.35;;;0.90;;
21330;SDS011;10824;51.632;4.950;2023-04-25T15:08:42;3.38;;;1.10;;
21330;SDS011;10824;51.632;4.950;2023-04-25T15:11:09;3.20;;;0.88;;
21330;SDS011;10824;51.632;4.950;2023-04-25T15:13:37;1.85;;;0.88;;
21330;SDS011;10824;51.632;4.950;2023-04-25T15:16:04;7.45;;;1.00;;
21330;SDS011;10824;51.632;4.950;2023-04-25T15:18:33;4.82;;;1.02;;